sensor_id;sensor_type;location;lat;lon;timestamp;pressure;altitude;pressure_sealevel;temperature;humidity
17209;BME280;8720;48.488;9.202;2023-01-27T00:01:16;97179.75;;;4.11;62.66
17209;BME280;8720;48.488;9.202;2023-01-27T00:03:43;97180.63;;;4.18;62.84
17209;BME280;8720;48.488;9.202;2023-01-27T00:06:10;97171.16;;;4.20;62.72
17209;BME280;8720;48.488;9.202;2023-01-27T00:08:39;97180.63;;;4.21;63.09
17209;BME280;8720;48.488;9.202;2023-01-27T00:11:06;97173.75;;;4.20;63.01
17209;BME280;8720;48.488;9.202;2023-01-27T00:13:51;97181.50;;;4.18;63.20
17209;BME280;8720;48.488;9.202;2023-01-27T00:16:19;97170.25;;;4.06;63.03
17209;BME280;8720;48.488;9.202;2023-01-27T00:18:46;97174.59;;;4.19;62.90
17209;BME280;8720;48.488;9.202;2023-01-27T00:21:13;97176.34;;;4.20;62.97
17209;BME280;8720;48.488;9.202;2023-01-27T00:23:59;97174.63;;;4.20;63.15
17209;BME280;8720;48.488;9.202;2023-01-27T00:26:44;97170.28;;;4.21;63.00
17209;BME280;8720;48.488;9.202;2023-01-27T00:29:14;97180.66;;;4.25;63.05
17209;BME280;8720;48.488;9.202;2023-01-27T00:31:42;97172.03;;;4.26;62.58
17209;BME280;8720;48.488;9.202;2023-01-27T00:34:27;97166.84;;;4.14;62.80
17209;BME280;8720;48.488;9.202;2023-01-27T00:36:54;97168.56;;;4.20;63.00
17209;BME280;8720;48.488;9.202;2023-01-27T00:39:23;97184.94;;;4.19;62.75
17209;BME280;8720;48.488;9.202;2023-01-27T00:41:50;97178.91;;;4.17;62.94
17209;BME280;8720;48.488;9.202;2023-01-27T00:44:17;97180.63;;;4.15;62.91
17209;BME280;8720;48.488;9.202;2023-01-27T00:46:44;97179.78;;;4.14;63.04
17209;BME280;8720;48.488;9.202;2023-01-27T00:49:12;97183.22;;;4.13;62.88
17209;BME280;8720;48.488;9.202;2023-01-27T00:51:39;97175.44;;;4.13;62.89
17209;BME280;8720;48.488;9.202;2023-01-27T00:54:07;97175.44;;;4.10;62.73
17209;BME280;8720;48.488;9.202;2023-01-27T00:56:36;97170.28;;;4.09;62.83
17209;BME280;8720;48.488;9.202;2023-01-27T00:59:04;97166.78;;;4.04;62.79
17209;BME280;8720;48.488;9.202;2023-01-27T01:01:31;97181.47;;;4.08;62.87
17209;BME280;8720;48.488;9.202;2023-01-27T01:03:59;97178.88;;;4.11;62.90
17209;BME280;8720;48.488;9.202;2023-01-27T01:06:27;97182.34;;;4.13;62.96
17209;BME280;8720;48.488;9.202;2023-01-27T01:08:56;97176.28;;;4.08;62.98
17209;BME280;8720;48.488;9.202;2023-01-27T01:11:25;97176.31;;;4.15;62.86
17209;BME280;8720;48.488;9.202;2023-01-27T01:13:54;97176.31;;;4.17;62.89
17209;BME280;8720;48.488;9.202;2023-01-27T01:16:23;97182.34;;;4.19;63.04
17209;BME280;8720;48.488;9.202;2023-01-27T01:18:51;97177.22;;;4.20;62.94
17209;BME280;8720;48.488;9.202;2023-01-27T01:21:22;97186.69;;;4.23;62.89
17209;BME280;8720;48.488;9.202;2023-01-27T01:23:50;97179.78;;;4.25;62.86
17209;BME280;8720;48.488;9.202;2023-01-27T01:26:17;97189.31;;;4.26;62.80
17209;BME280;8720;48.488;9.202;2023-01-27T01:28:45;97180.63;;;4.18;62.86
17209;BME280;8720;48.488;9.202;2023-01-27T01:31:17;97192.72;;;4.26;62.81
17209;BME280;8720;48.488;9.202;2023-01-27T01:33:44;97184.13;;;4.26;62.66
17209;BME280;8720;48.488;9.202;2023-01-27T01:36:15;97170.28;;;4.21;62.57
17209;BME280;8720;48.488;9.202;2023-01-27T01:38:43;97175.47;;;4.22;62.70
17209;BME280;8720;48.488;9.202;2023-01-27T01:41:15;97182.38;;;4.25;62.44
17209;BME280;8720;48.488;9.202;2023-01-27T01:43:42;97186.69;;;4.24;62.50
17209;BME280;8720;48.488;9.202;2023-01-27T01:46:13;97178.91;;;4.15;62.59
17209;BME280;8720;48.488;9.202;2023-01-27T01:48:44;97184.97;;;4.25;62.58
17209;BME280;8720;48.488;9.202;2023-01-27T01:51:17;97179.78;;;4.22;62.67
17209;BME280;8720;48.488;9.202;2023-01-27T01:53:53;97177.22;;;4.22;62.62
17209;BME280;8720;48.488;9.202;2023-01-27T01:56:28;97172.88;;;4.18;62.99
17209;BME280;8720;48.488;9.202;2023-01-27T01:59:01;97178.06;;;4.24;62.87
17209;BME280;8720;48.488;9.202;2023-01-27T02:01:31;97170.31;;;4.27;62.69
17209;BME280;8720;48.488;9.202;2023-01-27T02:04:03;97158.22;;;4.18;62.67
17209;BME280;8720;48.488;9.202;2023-01-27T02:06:39;97174.63;;;4.25;62.45
17209;BME280;8720;48.488;9.202;2023-01-27T02:09:10;97167.69;;;4.22;62.83
17209;BME280;8720;48.488;9.202;2023-01-27T02:11:37;97165.97;;;4.21;62.67
17209;BME280;8720;48.488;9.202;2023-01-27T02:14:10;97151.28;;;4.13;62.68
17209;BME280;8720;48.488;9.202;2023-01-27T02:16:39;97159.94;;;4.21;62.55
17209;BME280;8720;48.488;9.202;2023-01-27T02:19:15;97156.50;;;4.20;62.63
17209;BME280;8720;48.488;9.202;2023-01-27T02:21:47;97163.41;;;4.18;62.71
17209;BME280;8720;48.488;9.202;2023-01-27T02:24:16;97152.13;;;4.15;62.73
17209;BME280;8720;48.488;9.202;2023-01-27T02:26:46;97161.66;;;4.22;62.85
17209;BME280;8720;48.488;9.202;2023-01-27T02:29:15;97139.19;;;4.12;62.68
17209;BME280;8720;48.488;9.202;2023-01-27T02:31:42;97153.91;;;4.26;62.83
17209;BME280;8720;48.488;9.202;2023-01-27T02:34:14;97134.88;;;4.17;62.68
17209;BME280;8720;48.488;9.202;2023-01-27T02:36:47;97150.50;;;4.32;62.73
17209;BME280;8720;48.488;9.202;2023-01-27T02:39:19;97139.25;;;4.30;62.74
17209;BME280;8720;48.488;9.202;2023-01-27T02:41:52;97152.22;;;4.37;62.66
17209;BME280;8720;48.488;9.202;2023-01-27T02:44:21;97147.03;;;4.39;62.60
17209;BME280;8720;48.488;9.202;2023-01-27T02:46:49;97137.53;;;4.32;62.57
17209;BME280;8720;48.488;9.202;2023-01-27T02:49:17;97140.13;;;4.33;62.39
17209;BME280;8720;48.488;9.202;2023-01-27T02:51:44;97147.88;;;4.38;62.63
17209;BME280;8720;48.488;9.202;2023-01-27T02:54:11;97153.94;;;4.43;62.68
17209;BME280;8720;48.488;9.202;2023-01-27T02:56:40;97153.06;;;4.44;62.53
17209;BME280;8720;48.488;9.202;2023-01-27T02:59:10;97155.69;;;4.47;62.45
17209;BME280;8720;48.488;9.202;2023-01-27T03:04:15;97147.91;;;4.44;62.59
17209;BME280;8720;48.488;9.202;2023-01-27T03:06:43;97146.19;;;4.41;62.53
17209;BME280;8720;48.488;9.202;2023-01-27T03:09:10;97149.63;;;4.40;62.47
17209;BME280;8720;48.488;9.202;2023-01-27T03:11:38;97147.91;;;4.39;62.38
17209;BME280;8720;48.488;9.202;2023-01-27T03:14:24;97146.16;;;4.37;62.74
17209;BME280;8720;48.488;9.202;2023-01-27T03:17:09;97147.00;;;4.36;62.67
17209;BME280;8720;48.488;9.202;2023-01-27T03:19:54;97147.00;;;4.36;62.65
17209;BME280;8720;48.488;9.202;2023-01-27T03:22:21;97150.47;;;4.36;62.42
17209;BME280;8720;48.488;9.202;2023-01-27T03:24:49;97140.97;;;4.34;62.64
17209;BME280;8720;48.488;9.202;2023-01-27T03:27:17;97141.00;;;4.35;62.66
17209;BME280;8720;48.488;9.202;2023-01-27T03:30:17;97109.88;;;4.14;62.66
17209;BME280;8720;48.488;9.202;2023-01-27T03:32:54;97141.84;;;4.33;62.69
17209;BME280;8720;48.488;9.202;2023-01-27T03:35:45;97148.75;;;4.35;62.57
17209;BME280;8720;48.488;9.202;2023-01-27T03:38:17;97141.00;;;4.35;62.56
17209;BME280;8720;48.488;9.202;2023-01-27T03:41:03;97143.56;;;4.34;62.72
17209;BME280;8720;48.488;9.202;2023-01-27T03:43:48;97143.56;;;4.34;62.68
17209;BME280;8720;48.488;9.202;2023-01-27T03:46:35;97154.78;;;4.34;62.62
17209;BME280;8720;48.488;9.202;2023-01-27T03:49:02;97157.38;;;4.36;62.79
17209;BME280;8720;48.488;9.202;2023-01-27T03:51:30;97153.94;;;4.37;62.54
17209;BME280;8720;48.488;9.202;2023-01-27T03:53:57;97151.34;;;4.35;62.79
17209;BME280;8720;48.488;9.202;2023-01-27T03:56:25;97155.66;;;4.35;62.48
17209;BME280;8720;48.488;9.202;2023-01-27T03:58:53;97160.84;;;4.36;62.43
17209;BME280;8720;48.488;9.202;2023-01-27T04:01:22;97155.63;;;4.29;62.55
17209;BME280;8720;48.488;9.202;2023-01-27T04:03:52;97167.72;;;4.34;62.52
17209;BME280;8720;48.488;9.202;2023-01-27T04:06:39;97155.66;;;4.35;62.77
17209;BME280;8720;48.488;9.202;2023-01-27T04:09:30;97155.66;;;4.35;62.57
17209;BME280;8720;48.488;9.202;2023-01-27T04:12:02;97145.28;;;4.26;62.62
17209;BME280;8720;48.488;9.202;2023-01-27T04:14:32;97158.25;;;4.33;62.71
17209;BME280;8720;48.488;9.202;2023-01-27T04:17:03;97140.97;;;4.20;62.78
17209;BME280;8720;48.488;9.202;2023-01-27T04:19:32;97147.88;;;4.26;62.75
17209;BME280;8720;48.488;9.202;2023-01-27T04:22:00;97150.47;;;4.30;62.82
17209;BME280;8720;48.488;9.202;2023-01-27T04:24:28;97142.66;;;4.24;62.79
17209;BME280;8720;48.488;9.202;2023-01-27T04:26:58;97147.84;;;4.23;62.55
17209;BME280;8720;48.488;9.202;2023-01-27T04:29:28;97154.78;;;4.25;62.64
17209;BME280;8720;48.488;9.202;2023-01-27T04:31:56;97154.75;;;4.19;63.02
17209;BME280;8720;48.488;9.202;2023-01-27T04:34:24;97157.34;;;4.27;62.91
17209;BME280;8720;48.488;9.202;2023-01-27T04:36:54;97161.66;;;4.26;62.69
17209;BME280;8720;48.488;9.202;2023-01-27T04:39:22;97165.16;;;4.30;62.81
17209;BME280;8720;48.488;9.202;2023-01-27T04:41:49;97113.28;;;4.06;62.68
17209;BME280;8720;48.488;9.202;2023-01-27T04:44:20;97137.50;;;4.23;62.64
17209;BME280;8720;48.488;9.202;2023-01-27T04:46:48;97158.22;;;4.30;62.69
17209;BME280;8720;48.488;9.202;2023-01-27T04:49:15;97158.22;;;4.26;62.63
17209;BME280;8720;48.488;9.202;2023-01-27T04:51:43;97168.63;;;4.32;62.83
17209;BME280;8720;48.488;9.202;2023-01-27T04:54:12;97164.28;;;4.32;62.82
17209;BME280;8720;48.488;9.202;2023-01-27T04:56:41;97152.22;;;4.30;62.76
17209;BME280;8720;48.488;9.202;2023-01-27T04:59:12;97147.03;;;4.30;62.66
17209;BME280;8720;48.488;9.202;2023-01-27T05:01:40;97154.81;;;4.37;62.73
17209;BME280;8720;48.488;9.202;2023-01-27T05:04:07;97150.50;;;4.39;62.68
17209;BME280;8720;48.488;9.202;2023-01-27T05:06:35;97160.84;;;4.39;62.63
17209;BME280;8720;48.488;9.202;2023-01-27T05:09:02;97161.69;;;4.40;62.57
17209;BME280;8720;48.488;9.202;2023-01-27T05:11:31;97169.47;;;4.40;62.55
17209;BME280;8720;48.488;9.202;2023-01-27T05:13:58;97171.19;;;4.38;62.57
17209;BME280;8720;48.488;9.202;2023-01-27T05:16:25;97178.09;;;4.33;62.78
17209;BME280;8720;48.488;9.202;2023-01-27T05:18:53;97173.78;;;4.32;62.77
17209;BME280;8720;48.488;9.202;2023-01-27T05:21:23;97172.03;;;4.29;62.88
17209;BME280;8720;48.488;9.202;2023-01-27T05:23:53;97180.69;;;4.30;63.03
17209;BME280;8720;48.488;9.202;2023-01-27T05:26:22;97182.41;;;4.29;62.75
17209;BME280;8720;48.488;9.202;2023-01-27T05:28:52;97172.03;;;4.23;62.51
17209;BME280;8720;48.488;9.202;2023-01-27T05:31:23;97179.81;;;4.31;62.84
17209;BME280;8720;48.488;9.202;2023-01-27T05:33:53;97175.50;;;4.30;62.82
17209;BME280;8720;48.488;9.202;2023-01-27T05:36:23;97174.63;;;4.31;62.83
17209;BME280;8720;48.488;9.202;2023-01-27T05:38:52;97192.75;;;4.31;62.74
17209;BME280;8720;48.488;9.202;2023-01-27T05:41:20;97185.84;;;4.25;62.66
17209;BME280;8720;48.488;9.202;2023-01-27T05:43:54;97184.09;;;4.23;62.92
17209;BME280;8720;48.488;9.202;2023-01-27T05:46:24;97191.00;;;4.21;62.79
17209;BME280;8720;48.488;9.202;2023-01-27T05:48:53;97191.00;;;4.22;62.90
17209;BME280;8720;48.488;9.202;2023-01-27T05:51:24;97201.38;;;4.24;62.93
17209;BME280;8720;48.488;9.202;2023-01-27T05:53:52;97194.44;;;4.24;62.85
17209;BME280;8720;48.488;9.202;2023-01-27T05:56:21;97185.81;;;4.19;62.48
17209;BME280;8720;48.488;9.202;2023-01-27T05:58:49;97189.28;;;4.23;62.89
17209;BME280;8720;48.488;9.202;2023-01-27T06:01:20;97191.00;;;4.21;62.81
17209;BME280;8720;48.488;9.202;2023-01-27T06:03:48;97203.94;;;4.18;62.92
17209;BME280;8720;48.488;9.202;2023-01-27T06:06:18;97194.44;;;4.14;62.78
17209;BME280;8720;48.488;9.202;2023-01-27T06:08:47;97201.31;;;4.15;62.90
17209;BME280;8720;48.488;9.202;2023-01-27T06:11:15;97201.31;;;4.15;63.02
17209;BME280;8720;48.488;9.202;2023-01-27T06:13:45;97207.38;;;4.15;62.91
17209;BME280;8720;48.488;9.202;2023-01-27T06:16:17;97212.56;;;4.14;62.95
17209;BME280;8720;48.488;9.202;2023-01-27T06:18:45;97210.81;;;4.13;63.26
17209;BME280;8720;48.488;9.202;2023-01-27T06:21:15;97211.69;;;4.10;62.96
17209;BME280;8720;48.488;9.202;2023-01-27T06:23:42;97209.94;;;4.08;63.08
17209;BME280;8720;48.488;9.202;2023-01-27T06:26:13;97212.53;;;4.08;63.04
17209;BME280;8720;48.488;9.202;2023-01-27T06:28:41;97216.00;;;4.08;63.04
17209;BME280;8720;48.488;9.202;2023-01-27T06:31:13;97213.41;;;4.07;63.06
17209;BME280;8720;48.488;9.202;2023-01-27T06:33:42;97195.22;;;3.95;62.62
17209;BME280;8720;48.488;9.202;2023-01-27T06:36:13;97217.69;;;4.09;63.00
17209;BME280;8720;48.488;9.202;2023-01-27T06:38:42;97214.28;;;4.10;62.81
17209;BME280;8720;48.488;9.202;2023-01-27T06:41:09;97193.53;;;4.03;62.86
17209;BME280;8720;48.488;9.202;2023-01-27T06:43:37;97222.91;;;4.12;62.85
17209;BME280;8720;48.488;9.202;2023-01-27T06:46:05;97214.25;;;4.15;62.94
17209;BME280;8720;48.488;9.202;2023-01-27T06:48:33;97204.72;;;4.03;62.68
17209;BME280;8720;48.488;9.202;2023-01-27T06:51:01;97224.66;;;4.18;62.98
17209;BME280;8720;48.488;9.202;2023-01-27T06:53:29;97227.22;;;4.12;62.84
17209;BME280;8720;48.488;9.202;2023-01-27T06:55:59;97234.13;;;4.19;62.99
17209;BME280;8720;48.488;9.202;2023-01-27T06:58:27;97239.34;;;4.22;62.87
17209;BME280;8720;48.488;9.202;2023-01-27T07:00:55;97233.28;;;4.20;62.61
17209;BME280;8720;48.488;9.202;2023-01-27T07:03:23;97243.66;;;4.21;62.83
17209;BME280;8720;48.488;9.202;2023-01-27T07:05:51;97254.88;;;4.26;62.62
17209;BME280;8720;48.488;9.202;2023-01-27T07:08:20;97247.09;;;4.26;62.51
17209;BME280;8720;48.488;9.202;2023-01-27T07:10:47;97255.75;;;4.24;62.78
17209;BME280;8720;48.488;9.202;2023-01-27T07:13:15;97249.69;;;4.22;62.49
17209;BME280;8720;48.488;9.202;2023-01-27T07:15:43;97257.47;;;4.23;62.77
17209;BME280;8720;48.488;9.202;2023-01-27T07:18:11;97261.75;;;4.24;62.75
17209;BME280;8720;48.488;9.202;2023-01-27T07:20:39;97258.34;;;4.24;62.67
17209;BME280;8720;48.488;9.202;2023-01-27T07:23:09;97265.22;;;4.23;62.73
17209;BME280;8720;48.488;9.202;2023-01-27T07:25:38;97265.22;;;4.22;62.73
17209;BME280;8720;48.488;9.202;2023-01-27T07:28:05;97268.66;;;4.21;62.94
17209;BME280;8720;48.488;9.202;2023-01-27T07:30:33;97266.94;;;4.20;63.13
17209;BME280;8720;48.488;9.202;2023-01-27T07:33:04;97250.53;;;4.16;62.74
17209;BME280;8720;48.488;9.202;2023-01-27T07:35:31;97266.13;;;4.30;62.75
17209;BME280;8720;48.488;9.202;2023-01-27T07:38:00;97274.75;;;4.29;62.64
17209;BME280;8720;48.488;9.202;2023-01-27T07:40:27;97275.59;;;4.26;62.60
17209;BME280;8720;48.488;9.202;2023-01-27T07:42:58;97266.94;;;4.23;62.84
17209;BME280;8720;48.488;9.202;2023-01-27T07:45:27;97279.91;;;4.24;62.89
17209;BME280;8720;48.488;9.202;2023-01-27T07:47:59;97287.66;;;4.24;63.03
17209;BME280;8720;48.488;9.202;2023-01-27T07:50:27;97293.72;;;4.25;63.01
17209;BME280;8720;48.488;9.202;2023-01-27T07:52:58;97295.47;;;4.26;62.92
17209;BME280;8720;48.488;9.202;2023-01-27T07:55:27;97289.41;;;4.25;62.80
17209;BME280;8720;48.488;9.202;2023-01-27T07:57:55;97296.31;;;4.25;62.98
17209;BME280;8720;48.488;9.202;2023-01-27T08:00:24;97292.88;;;4.26;62.82
17209;BME280;8720;48.488;9.202;2023-01-27T08:02:54;97293.72;;;4.22;62.77
17209;BME280;8720;48.488;9.202;2023-01-27T08:05:22;97297.13;;;4.21;62.83
17209;BME280;8720;48.488;9.202;2023-01-27T08:07:50;97303.19;;;4.20;62.85
17209;BME280;8720;48.488;9.202;2023-01-27T08:10:19;97296.25;;;4.19;62.97
17209;BME280;8720;48.488;9.202;2023-01-27T08:12:46;97298.84;;;4.19;62.93
17209;BME280;8720;48.488;9.202;2023-01-27T08:15:14;97299.72;;;4.16;62.83
17209;BME280;8720;48.488;9.202;2023-01-27T08:17:43;97295.38;;;4.15;63.09
17209;BME280;8720;48.488;9.202;2023-01-27T08:20:11;97299.72;;;4.16;63.07
17209;BME280;8720;48.488;9.202;2023-01-27T08:22:38;97291.97;;;4.16;62.88
17209;BME280;8720;48.488;9.202;2023-01-27T08:25:07;97295.44;;;4.18;63.03
17209;BME280;8720;48.488;9.202;2023-01-27T08:27:34;97297.13;;;4.21;63.08
17209;BME280;8720;48.488;9.202;2023-01-27T08:30:01;97303.19;;;4.20;63.13
17209;BME280;8720;48.488;9.202;2023-01-27T08:32:29;97300.59;;;4.20;63.24
17209;BME280;8720;48.488;9.202;2023-01-27T08:34:57;97304.06;;;4.20;63.13
17209;BME280;8720;48.488;9.202;2023-01-27T08:37:25;97304.91;;;4.22;63.34
17209;BME280;8720;48.488;9.202;2023-01-27T08:39:52;97309.25;;;4.25;63.15
17209;BME280;8720;48.488;9.202;2023-01-27T08:42:19;97310.97;;;4.24;63.12
17209;BME280;8720;48.488;9.202;2023-01-27T08:44:47;97319.63;;;4.29;63.19
17209;BME280;8720;48.488;9.202;2023-01-27T08:47:14;97315.34;;;4.33;63.25
17209;BME280;8720;48.488;9.202;2023-01-27T08:49:42;97323.09;;;4.34;63.18
17209;BME280;8720;48.488;9.202;2023-01-27T08:52:10;97324.84;;;4.35;63.13
17209;BME280;8720;48.488;9.202;2023-01-27T08:54:38;97323.97;;;4.33;62.95
17209;BME280;8720;48.488;9.202;2023-01-27T08:57:05;97322.22;;;4.34;63.03
17209;BME280;8720;48.488;9.202;2023-01-27T08:59:32;97330.88;;;4.33;62.97
17209;BME280;8720;48.488;9.202;2023-01-27T09:02:00;97336.06;;;4.31;62.93
17209;BME280;8720;48.488;9.202;2023-01-27T09:04:27;97322.22;;;4.29;63.09
17209;BME280;8720;48.488;9.202;2023-01-27T09:06:56;97330.00;;;4.29;62.94
17209;BME280;8720;48.488;9.202;2023-01-27T09:09:24;97330.00;;;4.31;63.07
17209;BME280;8720;48.488;9.202;2023-01-27T09:11:52;97337.81;;;4.35;63.18
17209;BME280;8720;48.488;9.202;2023-01-27T09:14:19;97322.25;;;4.38;63.18
17209;BME280;8720;48.488;9.202;2023-01-27T09:16:46;97326.59;;;4.41;63.22
17209;BME280;8720;48.488;9.202;2023-01-27T09:19:14;97319.72;;;4.41;62.90
17209;BME280;8720;48.488;9.202;2023-01-27T09:21:41;97316.25;;;4.45;63.23
17209;BME280;8720;48.488;9.202;2023-01-27T09:24:09;97313.69;;;4.50;63.13
17209;BME280;8720;48.488;9.202;2023-01-27T09:26:39;97325.78;;;4.52;63.06
17209;BME280;8720;48.488;9.202;2023-01-27T09:29:06;97316.31;;;4.53;63.06
17209;BME280;8720;48.488;9.202;2023-01-27T09:31:34;97313.72;;;4.54;62.93
17209;BME280;8720;48.488;9.202;2023-01-27T09:34:01;97306.78;;;4.53;62.85
17209;BME280;8720;48.488;9.202;2023-01-27T09:36:31;97318.03;;;4.54;62.91
17209;BME280;8720;48.488;9.202;2023-01-27T09:39:06;97312.84;;;4.54;62.59
17209;BME280;8720;48.488;9.202;2023-01-27T09:42:06;97311.97;;;4.53;62.96
17209;BME280;8720;48.488;9.202;2023-01-27T09:45:12;97317.16;;;4.53;62.96
17209;BME280;8720;48.488;9.202;2023-01-27T09:48:12;97313.69;;;4.48;63.03
17209;BME280;8720;48.488;9.202;2023-01-27T09:50:45;97319.75;;;4.49;63.12
17209;BME280;8720;48.488;9.202;2023-01-27T09:54:08;97318.91;;;4.54;63.56
17209;BME280;8720;48.488;9.202;2023-01-27T09:56:51;97324.06;;;4.56;63.40
17209;BME280;8720;48.488;9.202;2023-01-27T09:59:46;97311.09;;;4.47;63.10
17209;BME280;8720;48.488;9.202;2023-01-27T10:02:39;97319.75;;;4.55;63.13
17209;BME280;8720;48.488;9.202;2023-01-27T10:05:35;97333.56;;;4.57;63.46
17209;BME280;8720;48.488;9.202;2023-01-27T10:08:37;97334.44;;;4.59;63.22
17209;BME280;8720;48.488;9.202;2023-01-27T10:11:17;97326.66;;;4.59;63.17
17209;BME280;8720;48.488;9.202;2023-01-27T10:14:03;97336.19;;;4.63;63.22
17209;BME280;8720;48.488;9.202;2023-01-27T10:17:00;97331.03;;;4.66;63.36
17209;BME280;8720;48.488;9.202;2023-01-27T10:19:51;97338.81;;;4.69;63.30
17209;BME280;8720;48.488;9.202;2023-01-27T10:22:37;97344.00;;;4.72;63.16
17209;BME280;8720;48.488;9.202;2023-01-27T10:25:24;97349.19;;;4.74;63.23
17209;BME280;8720;48.488;9.202;2023-01-27T10:27:57;97354.38;;;4.75;63.17
17209;BME280;8720;48.488;9.202;2023-01-27T10:30:33;97343.13;;;4.72;63.09
17209;BME280;8720;48.488;9.202;2023-01-27T10:33:15;97351.81;;;4.83;62.93
17209;BME280;8720;48.488;9.202;2023-01-27T10:35:51;97349.22;;;4.84;62.95
17209;BME280;8720;48.488;9.202;2023-01-27T10:38:34;97350.97;;;4.84;62.78
17209;BME280;8720;48.488;9.202;2023-01-27T10:41:18;97343.16;;;4.79;62.57
17209;BME280;8720;48.488;9.202;2023-01-27T10:44:07;97344.03;;;4.78;62.83
17209;BME280;8720;48.488;9.202;2023-01-27T10:46:49;97344.88;;;4.77;62.64
17209;BME280;8720;48.488;9.202;2023-01-27T10:49:27;97344.00;;;4.77;62.57
17209;BME280;8720;48.488;9.202;2023-01-27T10:52:02;97343.16;;;4.76;62.65
17209;BME280;8720;48.488;9.202;2023-01-27T10:54:36;97345.75;;;4.79;62.56
17209;BME280;8720;48.488;9.202;2023-01-27T10:57:11;97348.34;;;4.82;62.55
17209;BME280;8720;48.488;9.202;2023-01-27T10:59:47;97350.97;;;4.84;62.43
17209;BME280;8720;48.488;9.202;2023-01-27T11:02:26;97354.41;;;4.84;62.47
17209;BME280;8720;48.488;9.202;2023-01-27T11:05:00;97351.81;;;4.84;62.72
17209;BME280;8720;48.488;9.202;2023-01-27T11:07:30;97351.81;;;4.83;62.61
17209;BME280;8720;48.488;9.202;2023-01-27T11:10:03;97345.75;;;4.81;62.38
17209;BME280;8720;48.488;9.202;2023-01-27T11:12:38;97341.44;;;4.80;62.45
17209;BME280;8720;48.488;9.202;2023-01-27T11:15:19;97345.75;;;4.76;62.53
17209;BME280;8720;48.488;9.202;2023-01-27T11:17:56;97350.94;;;4.78;62.38
17209;BME280;8720;48.488;9.202;2023-01-27T11:20:31;97344.88;;;4.80;62.61
17209;BME280;8720;48.488;9.202;2023-01-27T11:23:09;97345.75;;;4.82;62.60
17209;BME280;8720;48.488;9.202;2023-01-27T11:25:47;97347.50;;;4.85;62.55
17209;BME280;8720;48.488;9.202;2023-01-27T11:28:31;97336.25;;;4.84;62.48
17209;BME280;8720;48.488;9.202;2023-01-27T11:31:12;97356.16;;;4.84;62.46
17209;BME280;8720;48.488;9.202;2023-01-27T11:33:53;97344.88;;;4.80;62.29
17209;BME280;8720;48.488;9.202;2023-01-27T11:36:25;97327.59;;;4.72;62.44
17209;BME280;8720;48.488;9.202;2023-01-27T11:38:54;97330.19;;;4.73;62.75
17209;BME280;8720;48.488;9.202;2023-01-27T11:41:24;97320.66;;;4.71;62.82
17209;BME280;8720;48.488;9.202;2023-01-27T11:43:52;97333.66;;;4.81;62.76
17209;BME280;8720;48.488;9.202;2023-01-27T11:46:23;97309.47;;;4.76;62.32
17209;BME280;8720;48.488;9.202;2023-01-27T11:48:56;97316.41;;;4.89;62.87
17209;BME280;8720;48.488;9.202;2023-01-27T11:51:34;97314.69;;;4.93;62.71
17209;BME280;8720;48.488;9.202;2023-01-27T11:54:13;97316.41;;;4.92;62.74
17209;BME280;8720;48.488;9.202;2023-01-27T11:56:46;97313.81;;;4.94;62.86
17209;BME280;8720;48.488;9.202;2023-01-27T11:59:19;97306.91;;;4.94;62.68
17209;BME280;8720;48.488;9.202;2023-01-27T12:01:55;97308.66;;;4.95;62.55
17209;BME280;8720;48.488;9.202;2023-01-27T12:04:44;97310.41;;;5.01;62.73
17209;BME280;8720;48.488;9.202;2023-01-27T12:07:26;97310.38;;;5.05;62.75
17209;BME280;8720;48.488;9.202;2023-01-27T12:09:56;97319.91;;;5.09;62.78
17209;BME280;8720;48.488;9.202;2023-01-27T12:12:26;97303.50;;;5.13;62.53
17209;BME280;8720;48.488;9.202;2023-01-27T12:14:56;97312.16;;;5.14;62.45
17209;BME280;8720;48.488;9.202;2023-01-27T12:17:31;97303.50;;;5.12;62.27
17209;BME280;8720;48.488;9.202;2023-01-27T12:20:06;97314.75;;;5.11;62.54
17209;BME280;8720;48.488;9.202;2023-01-27T12:22:52;97314.75;;;5.12;62.60
17209;BME280;8720;48.488;9.202;2023-01-27T12:25:25;97313.91;;;5.15;62.74
17209;BME280;8720;48.488;9.202;2023-01-27T12:27:58;97308.72;;;5.16;62.65
17209;BME280;8720;48.488;9.202;2023-01-27T12:30:30;97309.56;;;5.18;62.55
17209;BME280;8720;48.488;9.202;2023-01-27T12:32:59;97302.63;;;5.19;62.74
17209;BME280;8720;48.488;9.202;2023-01-27T12:35:32;97295.72;;;5.21;62.74
17209;BME280;8720;48.488;9.202;2023-01-27T12:38:10;97287.06;;;5.19;62.73
17209;BME280;8720;48.488;9.202;2023-01-27T12:40:41;97298.34;;;5.31;62.64
17209;BME280;8720;48.488;9.202;2023-01-27T12:43:12;97297.47;;;5.38;62.81
17209;BME280;8720;48.488;9.202;2023-01-27T12:45:41;97295.75;;;5.43;62.76
17209;BME280;8720;48.488;9.202;2023-01-27T12:48:18;97285.38;;;5.34;62.38
17209;BME280;8720;48.488;9.202;2023-01-27T12:50:56;97299.19;;;5.36;62.61
17209;BME280;8720;48.488;9.202;2023-01-27T12:53:32;97296.59;;;5.44;62.50
17209;BME280;8720;48.488;9.202;2023-01-27T12:56:09;97292.31;;;5.43;62.23
17209;BME280;8720;48.488;9.202;2023-01-27T12:58:40;97294.03;;;5.41;62.17
17209;BME280;8720;48.488;9.202;2023-01-27T13:01:27;97284.53;;;5.35;62.35
17209;BME280;8720;48.488;9.202;2023-01-27T13:03:59;97285.38;;;5.33;62.34
17209;BME280;8720;48.488;9.202;2023-01-27T13:06:38;97294.03;;;5.33;62.25
17209;BME280;8720;48.488;9.202;2023-01-27T13:09:25;97265.50;;;5.26;62.52
17209;BME280;8720;48.488;9.202;2023-01-27T13:11:56;97274.16;;;5.34;62.41
17209;BME280;8720;48.488;9.202;2023-01-27T13:14:28;97275.84;;;5.30;62.24
17209;BME280;8720;48.488;9.202;2023-01-27T13:16:57;97279.31;;;5.38;62.41
17209;BME280;8720;48.488;9.202;2023-01-27T13:19:34;97284.53;;;5.41;62.24
17209;BME280;8720;48.488;9.202;2023-01-27T13:22:05;97283.66;;;5.41;62.33
17209;BME280;8720;48.488;9.202;2023-01-27T13:24:39;97285.38;;;5.43;61.98
17209;BME280;8720;48.488;9.202;2023-01-27T13:27:14;97281.94;;;5.47;62.33
17209;BME280;8720;48.488;9.202;2023-01-27T13:29:59;97283.66;;;5.48;62.33
17209;BME280;8720;48.488;9.202;2023-01-27T13:32:32;97281.91;;;5.50;62.07
17209;BME280;8720;48.488;9.202;2023-01-27T13:35:16;97282.78;;;5.52;62.02
17209;BME280;8720;48.488;9.202;2023-01-27T13:37:56;97266.34;;;5.44;61.98
17209;BME280;8720;48.488;9.202;2023-01-27T13:40:34;97279.34;;;5.55;61.90
17209;BME280;8720;48.488;9.202;2023-01-27T13:43:12;97288.84;;;5.56;61.95
17209;BME280;8720;48.488;9.202;2023-01-27T13:45:53;97298.34;;;5.55;61.87
17209;BME280;8720;48.488;9.202;2023-01-27T13:48:27;97300.06;;;5.53;62.10
17209;BME280;8720;48.488;9.202;2023-01-27T13:51:05;97303.53;;;5.55;62.05
17209;BME280;8720;48.488;9.202;2023-01-27T13:53:33;97312.19;;;5.61;62.15